Airfield :
LOGIN :

Register | Disclaimer

   EN    FR    IT 

 










Legend :    VFR   Marginal VFR   IFR   Intensive IFR   Very Intensive IFR
Visi :
Ceiling :
>= 8 km
>= 3000ft
5 to 8 km
1000 to 3000 ft
1500m to 5 km
500 to 1000 ft
800 to 1500m
200 to 500 ft
< 800m
< 200 ft
Symbols :   Thunderstorms  Fog  Heavy snow  Heavy precipitations  Wind > 20 kt
SIGMETs :     Misc.  Thunderstorms  Icing  Turbulence  Mountain Waves  Volcanic Ashes






- Airport Elevation : 0 ft


ENSL - Sleipner A Platform

CURRENT METAR :
  • 121250Z AUTO 03027KT 9999NDV BKN015/// 08/06 Q0990 W06/S5

EXPIRED METARs :
  • 121220Z AUTO 04023KT 9999NDV FEW010/// BKN022/// BKN026/// 08/06 Q0990 W06/S5
  • 121150Z AUTO 05019KT 9999NDV -SHRA BKN018/// 08/05 Q0990 W06/S5
  • 121120Z AUTO 05027KT 9999NDV -SHRA BKN009/// OVC022/// 08/06 Q0989 W06/S5
  • 121050Z AUTO 04030KT 9999NDV BKN010/// 07/06 Q0989 W06/S5
  • 121020Z AUTO 05029KT 9999NDV FEW013/// SCT017/// 07/06 Q0989 W06/S5

Expired Forecast.



MET'MAP, your aeronautical weather chart ! - Copyright ORBIFLY December 2007 - Disclaimer

ORBIFLY MET'MAP TEAM :

Programming & Development : Alexandra Zaïnal
Concept & Development : Baudouin d'Aumeries
Co-Development & Prog : Marc-Olivier Méhu
Technical & hardware support : Manuel Goepfert

Contact : metmap@orbifly.com




SOURCES & CREDITS :

   NOAA